Time;durP1;ratioP1;P1;durP2;ratioP2;P2;SDS_P1;SDS_P2;PMS_P1;PMS_P2;Temp;Humidity;BMP_temperature;BMP_pressure;BME280_temperature;BME280_humidity;BME280_pressure;Samples;Min_cycle;Max_cycle;Signal;HPM_P1;HPM_P2
2023/10/05 00:03:50;;;;;;;;;;;;;;;;;;4977867;28;20419;-62
2023/10/05 00:06:28;;;;;;;5.53;0.82;;;;;;;;;;4979671;28;19917;-61
2023/10/05 00:08:56;;;;;;;3.75;0.85;;;;;;;;;;4985888;28;20066;-63
2023/10/05 00:11:24;;;;;;;7.20;0.82;;;;;;;;;;4979597;28;20052;-62
2023/10/05 00:13:56;;;;;;;2.70;0.80;;;;;;;;;;4978489;28;20030;-62
2023/10/05 00:16:23;;;;;;;3.00;0.80;;;;;;;;;;4979000;28;20077;-62
2023/10/05 00:18:50;;;;;;;4.15;1.08;;;;;;;;;;4973535;28;20050;-59
2023/10/05 00:21:21;;;;;;;2.65;0.73;;;;;;;;;;4981504;28;20077;-59
2023/10/05 00:23:57;;;;;;;2.92;0.93;;;;;;;;;;4980784;28;20037;-60
2023/10/05 00:26:29;;;;;;;6.93;1.70;;;;;;;;;;4978540;28;20042;-62
2023/10/05 00:29:41;;;;;;;4.53;1.40;;;;;;;;;;4979896;28;20475;-60
2023/10/05 00:31:44;;;;;;;2.92;0.95;;;;;;;;;;4980872;28;20035;-58
2023/10/05 00:34:30;;;;;;;2.70;0.80;;;;;;;;;;4979992;28;20038;-60
2023/10/05 00:37:00;;;;;;;7.25;1.13;;;;;;;;;;4977379;28;20206;-63
2023/10/05 00:39:31;;;;;;;2.90;0.90;;;;;;;;;;5008799;28;20040;-60
2023/10/05 00:44:30;;;;;;;3.08;1.08;;;;;;;;;;4976077;28;20046;-60
2023/10/05 00:47:03;;;;;;;2.78;0.70;;;;;;;;;;5009071;28;20715;-60
2023/10/05 00:49:41;;;;;;;2.72;0.88;;;;;;;;;;4976418;28;20492;-62
2023/10/05 00:52:18;;;;;;;6.00;0.85;;;;;;;;;;4978863;28;20046;-60
2023/10/05 00:54:51;;;;;;;5.75;1.05;;;;;;;;;;4981831;28;20040;-64
2023/10/05 00:57:24;;;;;;;3.58;0.80;;;;;;;;;;5006454;28;20045;-61
2023/10/05 01:03:01;;;;;;;5.07;1.05;;;;;;;;;;4977848;28;20030;-61
2023/10/05 01:05:34;;;;;;;3.38;0.90;;;;;;;;;;4979622;28;20107;-62
2023/10/05 01:08:04;;;;;;;4.15;0.80;;;;;;;;;;4976695;28;20158;-59
2023/10/05 01:10:48;;;;;;;2.70;0.70;;;;;;;;;;4976738;28;20037;-62
2023/10/05 01:13:28;;;;;;;5.55;0.98;;;;;;;;;;4977547;28;20041;-63
2023/10/05 01:15:55;;;;;;;7.38;1.13;;;;;;;;;;4978558;28;20061;-61
2023/10/05 01:18:25;;;;;;;3.38;1.13;;;;;;;;;;4977210;28;20053;-68
2023/10/05 01:20:58;;;;;;;4.60;1.02;;;;;;;;;;4970126;28;20648;-63
2023/10/05 01:23:29;;;;;;;4.00;1.25;;;;;;;;;;4991896;28;20039;-65
2023/10/05 01:25:56;;;;;;;5.40;1.48;;;;;;;;;;4974697;28;20050;-62
2023/10/05 01:28:22;;;;;;;5.00;1.55;;;;;;;;;;4978196;28;20030;-62
2023/10/05 01:30:53;;;;;;;6.05;1.63;;;;;;;;;;4979245;28;20053;-62
2023/10/05 01:33:21;;;;;;;6.65;2.42;;;;;;;;;;4981870;28;20487;-61
2023/10/05 01:35:47;;;;;;;5.55;1.60;;;;;;;;;;4977247;28;20062;-62
2023/10/05 01:38:14;;;;;;;5.28;1.42;;;;;;;;;;4984090;28;20581;-62
2023/10/05 01:40:47;;;;;;;4.40;1.33;;;;;;;;;;4976036;28;20046;-63
2023/10/05 01:43:14;;;;;;;7.50;1.35;;;;;;;;;;4976991;28;20445;-63
2023/10/05 01:45:44;;;;;;;7.38;1.20;;;;;;;;;;4977284;28;20038;-60
2023/10/05 01:48:18;;;;;;;15.05;1.40;;;;;;;;;;4976662;28;20407;-61
2023/10/05 01:50:45;;;;;;;8.10;2.10;;;;;;;;;;4977850;28;20483;-62
2023/10/05 01:53:15;;;;;;;6.70;2.03;;;;;;;;;;4975853;28;20309;-60
2023/10/05 01:55:45;;;;;;;4.38;1.35;;;;;;;;;;4977277;28;20074;-61
2023/10/05 01:58:22;;;;;;;9.82;1.55;;;;;;;;;;4976092;28;20042;-61
2023/10/05 02:00:48;;;;;;;4.40;1.30;;;;;;;;;;4985156;28;20112;-62
2023/10/05 02:03:17;;;;;;;8.05;1.30;;;;;;;;;;4977686;28;20037;-60
2023/10/05 02:05:47;;;;;;;8.52;1.42;;;;;;;;;;4977027;28;22716;-59
2023/10/05 02:08:14;;;;;;;14.00;1.58;;;;;;;;;;4977047;28;20129;-61
2023/10/05 02:10:45;;;;;;;9.07;2.28;;;;;;;;;;4978189;28;20044;-62
2023/10/05 02:13:12;;;;;;;6.55;1.83;;;;;;;;;;4977425;28;20118;-62
2023/10/05 02:15:39;;;;;;;9.57;2.20;;;;;;;;;;4976828;28;20384;-61
2023/10/05 02:18:24;;;;;;;15.32;2.90;;;;;;;;;;4976739;28;20046;-61
2023/10/05 02:20:56;;;;;;;8.55;1.83;;;;;;;;;;4971905;28;20096;-60
2023/10/05 02:23:26;;;;;;;6.85;1.90;;;;;;;;;;4978640;28;20101;-62
2023/10/05 02:26:09;;;;;;;5.53;2.10;;;;;;;;;;4977860;28;20295;-63
2023/10/05 02:28:38;;;;;;;;;;;;;;;;;;4992073;28;20038;-60
2023/10/05 02:31:11;;;;;;;10.68;2.53;;;;;;;;;;4978741;28;20047;-60
2023/10/05 02:33:38;;;;;;;12.25;3.35;;;;;;;;;;4981490;28;20156;-60
2023/10/05 02:36:11;;;;;;;18.25;3.67;;;;;;;;;;4981196;28;20173;-63
2023/10/05 02:38:38;;;;;;;8.98;3.45;;;;;;;;;;4978816;28;20035;-63
2023/10/05 02:41:08;;;;;;;11.27;3.25;;;;;;;;;;4978888;28;20117;-62
2023/10/05 02:43:40;;;;;;;9.52;3.45;;;;;;;;;;4989285;28;20041;-62
2023/10/05 02:46:11;;;;;;;11.40;3.63;;;;;;;;;;4990658;28;20509;-63
2023/10/05 02:48:41;;;;;;;10.15;4.00;;;;;;;;;;4979222;28;20038;-61
2023/10/05 02:51:13;;;;;;;12.82;4.40;;;;;;;;;;4980011;28;20105;-61
2023/10/05 02:53:56;;;;;;;8.35;4.43;;;;;;;;;;4972957;28;20504;-63
2023/10/05 02:56:33;;;;;;;12.77;4.63;;;;;;;;;;4982096;28;20050;-62
2023/10/05 02:59:07;;;;;;;9.70;4.07;;;;;;;;;;4980945;28;20035;-61
2023/10/05 03:01:37;;;;;;;13.10;3.80;;;;;;;;;;4982766;28;20050;-61
2023/10/05 03:04:10;;;;;;;11.60;3.38;;;;;;;;;;4983788;28;21412;-60
2023/10/05 03:06:40;;;;;;;10.17;3.47;;;;;;;;;;5012827;28;20045;-61
2023/10/05 03:09:07;;;;;;;9.75;3.10;;;;;;;;;;4982255;28;20290;-63
2023/10/05 03:11:40;;;;;;;9.15;3.53;;;;;;;;;;4981415;28;20844;-61
2023/10/05 03:14:10;;;;;;;9.18;3.40;;;;;;;;;;4983099;28;20149;-60
2023/10/05 03:16:43;;;;;;;16.40;2.90;;;;;;;;;;4981469;28;20042;-61
2023/10/05 03:19:23;;;;;;;9.57;2.50;;;;;;;;;;4983744;28;20042;-60
2023/10/05 03:21:58;;;;;;;7.85;2.60;;;;;;;;;;4987427;28;20050;-63
2023/10/05 03:24:28;;;;;;;12.07;2.45;;;;;;;;;;4979379;28;20045;-61
2023/10/05 03:26:55;;;;;;;8.52;2.20;;;;;;;;;;4982778;28;20045;-61
2023/10/05 03:29:22;;;;;;;6.95;2.63;;;;;;;;;;4987656;28;20356;-61
2023/10/05 03:32:04;;;;;;;15.05;3.05;;;;;;;;;;4983416;28;20044;-61
2023/10/05 03:34:32;;;;;;;11.75;2.78;;;;;;;;;;4981838;28;20038;-60
2023/10/05 03:37:12;;;;;;;8.70;2.45;;;;;;;;;;4980222;28;20037;-60
2023/10/05 03:39:52;;;;;;;10.23;2.80;;;;;;;;;;5002178;28;20828;-61
2023/10/05 03:42:21;;;;;;;7.55;2.53;;;;;;;;;;4995738;28;20073;-61
2023/10/05 03:45:03;;;;;;;12.38;2.65;;;;;;;;;;4980716;28;20038;-66
2023/10/05 03:47:31;;;;;;;7.45;2.15;;;;;;;;;;4977087;28;20129;-66
2023/10/05 03:49:58;;;;;;;9.10;2.40;;;;;;;;;;4979714;28;20431;-62
2023/10/05 03:52:32;;;;;;;8.40;2.63;;;;;;;;;;4980830;28;20049;-62
2023/10/05 03:55:11;;;;;;;5.35;2.17;;;;;;;;;;4986402;28;20050;-58
2023/10/05 03:57:39;;;;;;;10.13;2.72;;;;;;;;;;4978592;28;20048;-59
2023/10/05 04:02:44;;;;;;;6.80;1.85;;;;;;;;;;4979756;28;20409;-59
2023/10/05 04:05:11;;;;;;;8.40;2.42;;;;;;;;;;4980731;28;20124;-58
2023/10/05 04:07:39;;;;;;;7.72;2.00;;;;;;;;;;4977965;28;20039;-60
2023/10/05 04:10:14;;;;;;;5.35;1.90;;;;;;;;;;4979508;28;20046;-61
2023/10/05 04:12:41;;;;;;;7.97;2.30;;;;;;;;;;4978504;28;20042;-60
2023/10/05 04:15:11;;;;;;;5.88;2.35;;;;;;;;;;4979710;28;20483;-60
2023/10/05 04:17:38;;;;;;;7.43;2.40;;;;;;;;;;4979378;28;20038;-58
2023/10/05 04:20:17;;;;;;;6.45;2.13;;;;;;;;;;4994572;28;22122;-63
2023/10/05 04:22:46;;;;;;;10.50;2.65;;;;;;;;;;4979772;28;20078;-62
2023/10/05 04:25:16;;;;;;;13.90;4.63;;;;;;;;;;4979461;28;20057;-59
2023/10/05 04:27:46;;;;;;;6.93;2.20;;;;;;;;;;4972690;28;20053;-59
2023/10/05 04:30:17;;;;;;;12.13;3.22;;;;;;;;;;5003044;28;20050;-59
2023/10/05 04:32:44;;;;;;;7.75;2.42;;;;;;;;;;4979151;28;20057;-61
2023/10/05 04:35:32;;;;;;;10.93;2.53;;;;;;;;;;4979809;28;20434;-59
2023/10/05 04:38:00;;;;;;;11.77;2.85;;;;;;;;;;4984852;28;20042;-60
2023/10/05 04:40:27;;;;;;;11.60;2.50;;;;;;;;;;4977664;28;20065;-61
2023/10/05 04:43:04;;;;;;;12.80;3.00;;;;;;;;;;4979324;28;20042;-60
2023/10/05 04:45:31;;;;;;;7.22;2.35;;;;;;;;;;4978549;28;20453;-59
2023/10/05 04:48:01;;;;;;;11.02;2.40;;;;;;;;;;4993269;28;20049;-62
2023/10/05 04:50:28;;;;;;;5.95;2.17;;;;;;;;;;4974554;28;20034;-60
2023/10/05 04:52:55;;;;;;;6.35;2.42;;;;;;;;;;4978312;28;20047;-59
2023/10/05 04:55:31;;;;;;;8.25;2.30;;;;;;;;;;4976403;28;20038;-60
2023/10/05 05:08:35;;;;;;;6.65;2.15;;;;;;;;;;4977987;28;20042;-60
2023/10/05 05:11:03;;;;;;;6.38;2.58;;;;;;;;;;5008057;28;20546;-61
2023/10/05 05:13:29;;;;;;;5.32;2.20;;;;;;;;;;4976998;28;20136;-58
2023/10/05 05:15:57;;;;;;;6.35;2.30;;;;;;;;;;4975998;28;20345;-58
2023/10/05 05:18:23;;;;;;;9.27;2.53;;;;;;;;;;4976250;28;20038;-61
2023/10/05 05:20:50;;;;;;;6.25;2.65;;;;;;;;;;4977643;28;20050;-60
2023/10/05 05:23:20;;;;;;;8.88;2.25;;;;;;;;;;4976556;28;20100;-59
2023/10/05 05:25:51;;;;;;;5.20;2.58;;;;;;;;;;4977168;28;20049;-60
2023/10/05 05:28:18;;;;;;;5.47;2.47;;;;;;;;;;4979172;28;20043;-59
2023/10/05 05:30:46;;;;;;;7.28;2.50;;;;;;;;;;5008363;28;20128;-58
2023/10/05 05:33:13;;;;;;;10.65;2.65;;;;;;;;;;4979057;28;20038;-59
2023/10/05 05:35:40;;;;;;;5.80;2.42;;;;;;;;;;4978984;28;20497;-59
2023/10/05 05:38:10;;;;;;;9.52;3.10;;;;;;;;;;4978494;28;20046;-60
2023/10/05 05:40:37;;;;;;;6.18;2.20;;;;;;;;;;4978106;28;20058;-58
2023/10/05 05:43:08;;;;;;;7.65;2.58;;;;;;;;;;4985274;28;20490;-59
2023/10/05 05:45:39;;;;;;;9.25;2.40;;;;;;;;;;4980639;28;20046;-56
2023/10/05 05:48:09;;;;;;;11.43;2.50;;;;;;;;;;4992377;28;20503;-58
2023/10/05 05:50:39;;;;;;;7.25;2.90;;;;;;;;;;4977769;28;20466;-58
2023/10/05 05:53:22;;;;;;;5.75;2.60;;;;;;;;;;5010575;28;20613;-59
2023/10/05 05:55:53;;;;;;;6.32;2.30;;;;;;;;;;5011560;28;20033;-60
2023/10/05 05:58:20;;;;;;;11.57;2.55;;;;;;;;;;5012724;28;20047;-63
2023/10/05 06:00:46;;;;;;;6.13;2.28;;;;;;;;;;5013395;28;20777;-59
2023/10/05 06:03:16;;;;;;;8.50;2.50;;;;;;;;;;5013047;28;20945;-62
2023/10/05 06:05:43;;;;;;;6.15;2.80;;;;;;;;;;5011588;28;20037;-58
2023/10/05 06:08:11;;;;;;;5.68;2.38;;;;;;;;;;5012644;28;20064;-62
2023/10/05 06:10:38;;;;;;;6.60;2.50;;;;;;;;;;5011864;28;20156;-60
2023/10/05 06:13:11;;;;;;;9.48;2.30;;;;;;;;;;5012825;28;20044;-59
2023/10/05 06:15:38;;;;;;;9.10;2.28;;;;;;;;;;5028812;28;20110;-59
2023/10/05 06:18:05;;;;;;;7.28;2.60;;;;;;;;;;5013435;28;20715;-61
2023/10/05 06:20:31;;;;;;;8.23;2.63;;;;;;;;;;5012471;28;20045;-59
2023/10/05 06:22:58;;;;;;;9.00;2.75;;;;;;;;;;5014273;28;20156;-59
2023/10/05 06:25:28;;;;;;;7.18;2.63;;;;;;;;;;4982115;28;20596;-60
2023/10/05 06:27:55;;;;;;;10.85;2.88;;;;;;;;;;4978829;28;20053;-57
2023/10/05 06:30:21;;;;;;;16.33;3.03;;;;;;;;;;4978372;28;20045;-57
2023/10/05 06:32:48;;;;;;;6.45;2.65;;;;;;;;;;4978121;28;20042;-57
2023/10/05 06:35:17;;;;;;;7.28;2.55;;;;;;;;;;4977980;28;20061;-57
2023/10/05 06:37:44;;;;;;;8.40;2.85;;;;;;;;;;5008261;28;20631;-57
2023/10/05 06:40:14;;;;;;;10.52;2.88;;;;;;;;;;4978249;28;20050;-58
2023/10/05 06:42:41;;;;;;;8.60;3.08;;;;;;;;;;4976124;28;20529;-58
2023/10/05 06:45:13;;;;;;;5.30;2.50;;;;;;;;;;4979210;28;20042;-59
2023/10/05 06:47:40;;;;;;;7.38;2.78;;;;;;;;;;4978035;28;20402;-58
2023/10/05 06:50:11;;;;;;;13.07;2.75;;;;;;;;;;4978858;28;20036;-59
2023/10/05 06:52:43;;;;;;;11.18;2.97;;;;;;;;;;4980303;28;20503;-62
2023/10/05 06:55:11;;;;;;;6.93;2.88;;;;;;;;;;4978179;28;20629;-59
2023/10/05 06:57:38;;;;;;;9.40;3.13;;;;;;;;;;5008961;28;20578;-59
2023/10/05 07:00:15;;;;;;;10.20;3.15;;;;;;;;;;4978384;28;20049;-59
2023/10/05 07:02:42;;;;;;;8.88;3.17;;;;;;;;;;4974829;28;20068;-60
2023/10/05 07:05:09;;;;;;;8.75;3.05;;;;;;;;;;4979460;28;21465;-58
2023/10/05 07:07:36;;;;;;;6.10;3.22;;;;;;;;;;4976849;28;20133;-58
2023/10/05 07:10:03;;;;;;;8.10;3.17;;;;;;;;;;4976371;28;20343;-59
2023/10/05 07:12:38;;;;;;;9.02;2.97;;;;;;;;;;4991293;28;20459;-61
2023/10/05 07:15:05;;;;;;;6.22;2.65;;;;;;;;;;4977035;28;20467;-60
2023/10/05 07:17:32;;;;;;;8.40;3.08;;;;;;;;;;4977038;28;20141;-59
2023/10/05 07:19:59;;;;;;;7.15;2.80;;;;;;;;;;4981062;28;20038;-58
2023/10/05 07:22:26;;;;;;;8.85;3.28;;;;;;;;;;4982231;28;20116;-58
2023/10/05 07:24:53;;;;;;;5.47;2.88;;;;;;;;;;4980497;28;20589;-58
2023/10/05 07:27:40;;;;;;;7.53;3.50;;;;;;;;;;5002788;28;20147;-58
2023/10/05 07:30:08;;;;;;;9.73;3.10;;;;;;;;;;5003061;28;20156;-60
2023/10/05 07:32:35;;;;;;;9.63;3.13;;;;;;;;;;5002816;28;20034;-60
2023/10/05 07:40:39;;;;;;;8.77;2.72;;;;;;;;;;4960974;22;20054;-61
2023/10/05 07:43:06;;;;;;;7.35;2.72;;;;;;;;;;4967014;28;20049;-58
2023/10/05 07:45:33;;;;;;;8.75;2.92;;;;;;;;;;4960737;28;20047;-61
2023/10/05 07:48:00;;;;;;;5.03;2.67;;;;;;;;;;4962719;28;20047;-60
2023/10/05 07:50:30;;;;;;;9.10;2.40;;;;;;;;;;4953903;28;20772;-58
2023/10/05 07:52:58;;;;;;;9.60;3.22;;;;;;;;;;4955362;28;20571;-61
2023/10/05 07:55:25;;;;;;;9.73;2.63;;;;;;;;;;4951277;28;20129;-59
2023/10/05 07:57:52;;;;;;;7.18;2.38;;;;;;;;;;4947795;28;21590;-58
2023/10/05 08:00:20;;;;;;;7.63;2.40;;;;;;;;;;4948167;28;20050;-59
2023/10/05 08:02:47;;;;;;;6.25;2.60;;;;;;;;;;4951965;28;20046;-58
2023/10/05 08:05:15;;;;;;;6.43;2.70;;;;;;;;;;4951812;28;20050;-58
2023/10/05 08:07:44;;;;;;;6.88;2.67;;;;;;;;;;4951394;28;20412;-59
2023/10/05 08:10:18;;;;;;;4.68;2.15;;;;;;;;;;4956162;28;20605;-56
2023/10/05 08:12:48;;;;;;;5.88;2.17;;;;;;;;;;4965578;28;20463;-58
2023/10/05 08:15:18;;;;;;;8.68;2.95;;;;;;;;;;4976408;28;20058;-59
2023/10/05 08:17:49;;;;;;;6.82;2.85;;;;;;;;;;4968130;28;20042;-58
2023/10/05 08:20:17;;;;;;;6.82;2.45;;;;;;;;;;4948248;28;20043;-59
2023/10/05 08:22:46;;;;;;;10.15;2.42;;;;;;;;;;4948124;28;20480;-59
2023/10/05 08:25:13;;;;;;;7.93;2.10;;;;;;;;;;4947422;28;20031;-59
2023/10/05 08:27:42;;;;;;;5.90;2.10;;;;;;;;;;4947161;28;20038;-58
2023/10/05 08:30:12;;;;;;;6.78;2.22;;;;;;;;;;4947639;28;20218;-58
2023/10/05 08:32:39;;;;;;;8.57;2.35;;;;;;;;;;4948876;28;20444;-60
2023/10/05 08:35:18;;;;;;;8.55;2.30;;;;;;;;;;4948198;28;20583;-58
2023/10/05 08:37:49;;;;;;;5.85;2.08;;;;;;;;;;4947644;28;20039;-59
2023/10/05 08:43:12;;;;;;;4.97;2.20;;;;;;;;;;4948493;28;20424;-57
2023/10/05 08:46:03;;;;;;;8.30;2.03;;;;;;;;;;4959370;28;20057;-60
2023/10/05 08:48:35;;;;;;;5.20;2.22;;;;;;;;;;4948344;28;20053;-58
2023/10/05 08:51:12;;;;;;;8.18;2.63;;;;;;;;;;4961675;28;20613;-57
2023/10/05 08:53:48;;;;;;;4.97;2.30;;;;;;;;;;4947942;28;20122;-59
2023/10/05 08:56:18;;;;;;;6.80;2.53;;;;;;;;;;4954537;28;20034;-59
2023/10/05 08:58:48;;;;;;;4.55;2.25;;;;;;;;;;4955816;28;20176;-60
2023/10/05 09:01:26;;;;;;;6.13;2.22;;;;;;;;;;4947510;28;20066;-59
2023/10/05 09:03:54;;;;;;;7.65;2.45;;;;;;;;;;4953045;28;20031;-61
2023/10/05 09:06:20;;;;;;;5.80;2.08;;;;;;;;;;4945797;28;20039;-58
2023/10/05 09:11:34;;;;;;;7.50;2.60;;;;;;;;;;4946452;28;20598;-60
2023/10/05 09:14:17;;;;;;;8.23;2.28;;;;;;;;;;4963657;28;20038;-58
2023/10/05 09:16:45;;;;;;;5.93;2.10;;;;;;;;;;4948625;28;20078;-58
2023/10/05 09:19:15;;;;;;;3.90;1.67;;;;;;;;;;4949352;28;20436;-60
2023/10/05 09:21:45;;;;;;;4.18;1.92;;;;;;;;;;4948728;28;20051;-60
2023/10/05 09:24:21;;;;;;;7.90;2.30;;;;;;;;;;4948325;28;20456;-58
2023/10/05 09:26:52;;;;;;;10.88;2.20;;;;;;;;;;4947295;28;20049;-63
2023/10/05 09:29:22;;;;;;;4.38;1.90;;;;;;;;;;4946809;28;20054;-58
2023/10/05 09:31:56;;;;;;;5.38;2.03;;;;;;;;;;4949200;28;20508;-59
2023/10/05 09:34:44;;;;;;;6.32;2.40;;;;;;;;;;4949978;28;20488;-58
2023/10/05 09:37:13;;;;;;;4.10;1.92;;;;;;;;;;4949492;28;20089;-62
2023/10/05 09:39:44;;;;;;;5.25;2.03;;;;;;;;;;4947964;28;20179;-59
2023/10/05 09:42:17;;;;;;;9.02;1.92;;;;;;;;;;4950831;28;20058;-60
2023/10/05 09:44:53;;;;;;;7.63;2.20;;;;;;;;;;4948341;28;20042;-61
2023/10/05 09:47:25;;;;;;;3.97;1.88;;;;;;;;;;4945831;28;20063;-61
2023/10/05 09:49:54;;;;;;;4.18;1.65;;;;;;;;;;4949398;28;20043;-63
2023/10/05 09:52:22;;;;;;;7.00;2.08;;;;;;;;;;4947660;28;20057;-62
2023/10/05 09:54:49;;;;;;;7.13;1.83;;;;;;;;;;4963345;28;21496;-59
2023/10/05 09:57:17;;;;;;;7.40;2.10;;;;;;;;;;4947411;28;21461;-59
2023/10/05 09:59:48;;;;;;;4.22;1.73;;;;;;;;;;4948851;28;20042;-61
2023/10/05 10:02:16;;;;;;;4.28;1.77;;;;;;;;;;4961568;28;20553;-61
2023/10/05 10:04:43;;;;;;;8.20;1.90;;;;;;;;;;4948608;28;20046;-58
2023/10/05 10:07:22;;;;;;;5.35;1.60;;;;;;;;;;4948089;28;20034;-60
2023/10/05 10:09:53;;;;;;;3.75;1.50;;;;;;;;;;4948436;28;20051;-58
2023/10/05 10:12:27;;;;;;;4.85;1.67;;;;;;;;;;4949235;28;20761;-58
2023/10/05 10:14:58;;;;;;;4.32;1.50;;;;;;;;;;4945299;28;20054;-58
2023/10/05 10:17:28;;;;;;;4.82;1.42;;;;;;;;;;4947949;28;20043;-58
2023/10/05 10:20:16;;;;;;;4.43;1.52;;;;;;;;;;4948665;28;20038;-57
2023/10/05 10:22:50;;;;;;;5.70;1.52;;;;;;;;;;4949456;28;20057;-58
2023/10/05 10:25:41;;;;;;;4.63;1.67;;;;;;;;;;4949637;28;20426;-60
2023/10/05 10:28:39;;;;;;;4.63;1.50;;;;;;;;;;4967981;28;20506;-58
2023/10/05 10:31:17;;;;;;;3.90;1.40;;;;;;;;;;4955204;28;20051;-58
2023/10/05 10:33:50;;;;;;;3.95;1.42;;;;;;;;;;4948477;28;20039;-58
2023/10/05 10:36:51;;;;;;;4.97;1.40;;;;;;;;;;4991625;28;20088;-61
2023/10/05 10:39:27;;;;;;;2.90;1.05;;;;;;;;;;4992683;28;20157;-59
2023/10/05 10:42:18;;;;;;;7.03;1.42;;;;;;;;;;4988898;28;20833;-61
2023/10/05 10:47:22;;;;;;;4.13;1.20;;;;;;;;;;4984029;28;20549;-58
2023/10/05 10:50:15;;;;;;;3.67;1.25;;;;;;;;;;4985167;28;20124;-58
2023/10/05 10:52:45;;;;;;;4.65;1.08;;;;;;;;;;4990184;28;20053;-59
2023/10/05 10:55:14;;;;;;;4.15;1.27;;;;;;;;;;4991648;28;20049;-58
2023/10/05 10:57:45;;;;;;;3.28;1.08;;;;;;;;;;4990854;28;20072;-58
2023/10/05 11:02:57;;;;;;;3.17;1.00;;;;;;;;;;4992601;28;20479;-58
2023/10/05 11:05:39;;;;;;;3.28;1.20;;;;;;;;;;4992219;28;20037;-58
2023/10/05 11:08:19;;;;;;;3.90;1.08;;;;;;;;;;4969768;28;20074;-58
2023/10/05 11:11:09;;;;;;;4.78;1.20;;;;;;;;;;4959362;28;20066;-59
2023/10/05 11:13:49;;;;;;;4.75;1.13;;;;;;;;;;4952018;28;20035;-58
2023/10/05 11:16:16;;;;;;;3.70;1.20;;;;;;;;;;4951896;28;20078;-58
2023/10/05 11:18:58;;;;;;;4.45;1.25;;;;;;;;;;4950066;28;20607;-58
2023/10/05 11:21:33;;;;;;;4.18;1.10;;;;;;;;;;4950669;28;20119;-60
2023/10/05 11:24:06;;;;;;;3.70;1.33;;;;;;;;;;4951312;28;20551;-58
2023/10/05 11:26:33;;;;;;;3.45;1.10;;;;;;;;;;4950239;28;20138;-58
2023/10/05 11:29:00;;;;;;;4.65;1.50;;;;;;;;;;4951318;28;20038;-57
2023/10/05 11:31:27;;;;;;;6.20;1.30;;;;;;;;;;4951270;28;20046;-57
2023/10/05 11:33:54;;;;;;;3.75;1.40;;;;;;;;;;4950931;28;20404;-57
2023/10/05 11:36:58;;;;;;;5.43;1.40;;;;;;;;;;4950434;28;20267;-58
2023/10/05 11:39:27;;;;;;;5.53;1.30;;;;;;;;;;4948178;28;20438;-57
2023/10/05 11:41:58;;;;;;;4.63;1.40;;;;;;;;;;4950898;28;20522;-58
2023/10/05 11:44:25;;;;;;;6.03;1.80;;;;;;;;;;4949340;28;20157;-59
2023/10/05 11:46:59;;;;;;;3.67;1.40;;;;;;;;;;4962591;28;20117;-57
2023/10/05 11:49:32;;;;;;;3.72;1.30;;;;;;;;;;4951107;28;20046;-57
2023/10/05 11:51:59;;;;;;;5.72;1.33;;;;;;;;;;4951755;28;20251;-58
2023/10/05 11:54:34;;;;;;;7.78;1.75;;;;;;;;;;4950854;28;20042;-58
2023/10/05 11:57:00;;;;;;;5.05;1.60;;;;;;;;;;4950127;28;20039;-59
2023/10/05 11:59:28;;;;;;;4.68;1.40;;;;;;;;;;4948961;28;20053;-59
2023/10/05 12:01:55;;;;;;;4.15;1.23;;;;;;;;;;4949690;28;20085;-58
2023/10/05 12:04:23;;;;;;;3.85;1.30;;;;;;;;;;4949661;28;20601;-57
2023/10/05 12:07:12;;;;;;;4.55;1.00;;;;;;;;;;4950864;28;20807;-59
2023/10/05 12:09:43;;;;;;;3.10;0.95;;;;;;;;;;4950911;28;20043;-59
2023/10/05 12:12:18;;;;;;;5.47;1.08;;;;;;;;;;4950343;28;20046;-58
2023/10/05 12:14:46;;;;;;;3.50;1.15;;;;;;;;;;4950587;28;21032;-59
2023/10/05 12:17:12;;;;;;;3.78;1.15;;;;;;;;;;4949947;28;20467;-58
2023/10/05 12:19:39;;;;;;;5.97;1.45;;;;;;;;;;4950522;28;20043;-58
2023/10/05 12:22:08;;;;;;;4.32;1.23;;;;;;;;;;4951783;28;20088;-59
2023/10/05 12:24:35;;;;;;;6.15;1.40;;;;;;;;;;4950799;28;20046;-58
2023/10/05 12:27:13;;;;;;;3.05;1.00;;;;;;;;;;4950042;28;20484;-57
2023/10/05 12:29:44;;;;;;;2.78;0.95;;;;;;;;;;4950595;28;20070;-57
2023/10/05 12:32:13;;;;;;;4.85;1.25;;;;;;;;;;4949448;28;20089;-57
2023/10/05 12:34:44;;;;;;;4.90;1.00;;;;;;;;;;4951505;28;20046;-57
2023/10/05 12:37:17;;;;;;;7.85;1.30;;;;;;;;;;4949428;28;20035;-57
2023/10/05 12:39:45;;;;;;;2.78;0.90;;;;;;;;;;4949701;28;20071;-56
2023/10/05 12:42:11;;;;;;;3.20;1.10;;;;;;;;;;4949353;28;20054;-58
2023/10/05 12:44:39;;;;;;;4.25;0.90;;;;;;;;;;4949418;28;20590;-58
2023/10/05 12:47:08;;;;;;;4.13;1.10;;;;;;;;;;4950115;28;20074;-58
2023/10/05 12:49:35;;;;;;;2.88;0.95;;;;;;;;;;4949678;28;20042;-60
2023/10/05 12:52:02;;;;;;;3.25;1.00;;;;;;;;;;4950062;28;20063;-59
2023/10/05 12:54:29;;;;;;;7.63;1.02;;;;;;;;;;4950375;28;21151;-58
2023/10/05 12:56:55;;;;;;;3.47;0.98;;;;;;;;;;4949738;28;20057;-60
2023/10/05 12:59:24;;;;;;;2.47;0.77;;;;;;;;;;4949913;28;20042;-58
2023/10/05 13:01:57;;;;;;;4.22;1.00;;;;;;;;;;4950245;28;20067;-58
2023/10/05 13:04:23;;;;;;;4.10;1.05;;;;;;;;;;4948881;28;20039;-58
2023/10/05 13:06:50;;;;;;;2.78;0.77;;;;;;;;;;4949463;28;20090;-60
2023/10/05 13:09:19;;;;;;;3.42;1.02;;;;;;;;;;4950624;28;20113;-56
2023/10/05 13:11:47;;;;;;;2.67;0.80;;;;;;;;;;4949174;28;20070;-59
2023/10/05 13:14:14;;;;;;;5.45;1.00;;;;;;;;;;4949636;28;20053;-59
2023/10/05 13:16:44;;;;;;;3.03;1.00;;;;;;;;;;4948276;28;20551;-58
2023/10/05 13:19:13;;;;;;;8.45;0.95;;;;;;;;;;4948680;28;20133;-60
2023/10/05 13:21:43;;;;;;;2.70;0.88;;;;;;;;;;4949358;28;20042;-58
2023/10/05 13:24:12;;;;;;;3.83;0.90;;;;;;;;;;4950142;28;20058;-58
2023/10/05 13:26:46;;;;;;;4.05;1.05;;;;;;;;;;4949452;28;20533;-60
2023/10/05 13:29:16;;;;;;;4.38;1.20;;;;;;;;;;4949715;28;20043;-60
2023/10/05 13:31:43;;;;;;;6.82;1.30;;;;;;;;;;4949326;28;20054;-58
2023/10/05 13:34:11;;;;;;;4.15;0.93;;;;;;;;;;4949835;28;20354;-59
2023/10/05 13:36:37;;;;;;;8.40;1.00;;;;;;;;;;4949578;28;20043;-59
2023/10/05 13:39:10;;;;;;;5.38;0.90;;;;;;;;;;4949981;28;20055;-58
2023/10/05 13:41:46;;;;;;;3.85;1.20;;;;;;;;;;4958837;28;20450;-60
2023/10/05 13:44:17;;;;;;;5.53;1.13;;;;;;;;;;4970427;28;20401;-59
2023/10/05 13:46:47;;;;;;;22.83;2.10;;;;;;;;;;4965124;28;20158;-59
2023/10/05 13:49:16;;;;;;;5.55;1.05;;;;;;;;;;4951808;28;20062;-59
2023/10/05 13:51:43;;;;;;;7.70;1.05;;;;;;;;;;4950888;28;20066;-58
2023/10/05 13:54:15;;;;;;;5.57;1.10;;;;;;;;;;4953075;28;20066;-58
2023/10/05 13:56:41;;;;;;;9.20;1.00;;;;;;;;;;4950831;28;20651;-61
2023/10/05 13:59:17;;;;;;;3.35;0.90;;;;;;;;;;4952509;28;20050;-59
2023/10/05 14:01:44;;;;;;;8.75;1.50;;;;;;;;;;4952546;28;20432;-59
2023/10/05 14:04:13;;;;;;;3.80;1.00;;;;;;;;;;4947050;28;20039;-59
2023/10/05 14:06:45;;;;;;;5.22;1.30;;;;;;;;;;4952077;28;20520;-59
2023/10/05 14:09:12;;;;;;;3.78;1.08;;;;;;;;;;4952975;28;20046;-59
2023/10/05 14:11:40;;;;;;;3.38;1.00;;;;;;;;;;4951142;28;20042;-60
2023/10/05 14:14:07;;;;;;;3.40;1.20;;;;;;;;;;4953365;28;20065;-58
2023/10/05 14:17:00;;;;;;;3.70;1.02;;;;;;;;;;4952272;28;20054;-61
2023/10/05 14:19:30;;;;;;;5.32;1.15;;;;;;;;;;4952129;28;20076;-59
2023/10/05 14:21:58;;;;;;;5.28;1.23;;;;;;;;;;4953866;28;21343;-60
2023/10/05 14:24:25;;;;;;;6.88;1.20;;;;;;;;;;4953595;28;20121;-61
2023/10/05 14:26:54;;;;;;;3.17;1.10;;;;;;;;;;4959797;28;20073;-61
2023/10/05 14:29:24;;;;;;;4.25;1.05;;;;;;;;;;4957557;28;20051;-61
2023/10/05 14:31:56;;;;;;;10.15;1.10;;;;;;;;;;4955041;28;20046;-60
2023/10/05 14:34:22;;;;;;;9.98;1.10;;;;;;;;;;4952521;28;20046;-60
2023/10/05 14:36:52;;;;;;;5.88;1.30;;;;;;;;;;4952374;28;20772;-60
2023/10/05 14:39:21;;;;;;;7.20;1.20;;;;;;;;;;4952782;28;20061;-62
2023/10/05 14:41:54;;;;;;;3.90;1.30;;;;;;;;;;4951327;28;20081;-61
2023/10/05 14:44:21;;;;;;;6.50;1.10;;;;;;;;;;4952154;28;20039;-59
2023/10/05 14:46:49;;;;;;;3.38;1.20;;;;;;;;;;4951464;28;20047;-60
2023/10/05 14:49:21;;;;;;;3.65;1.05;;;;;;;;;;4952237;28;20038;-59
2023/10/05 14:51:51;;;;;;;4.57;1.20;;;;;;;;;;4953617;28;20177;-61
2023/10/05 14:54:21;;;;;;;6.95;1.10;;;;;;;;;;4952592;28;20400;-60
2023/10/05 14:56:48;;;;;;;8.82;1.20;;;;;;;;;;4966311;28;20043;-59
2023/10/05 14:59:14;;;;;;;8.15;1.20;;;;;;;;;;4952805;28;20078;-61
2023/10/05 15:01:41;;;;;;;3.22;1.02;;;;;;;;;;4951578;28;20051;-62
2023/10/05 15:04:08;;;;;;;3.60;1.08;;;;;;;;;;4952529;28;20043;-59
2023/10/05 15:06:34;;;;;;;6.30;1.20;;;;;;;;;;4950979;28;20094;-61
2023/10/05 15:09:02;;;;;;;5.35;1.27;;;;;;;;;;4951400;28;20043;-59
2023/10/05 15:11:29;;;;;;;3.03;1.05;;;;;;;;;;4950625;28;20483;-59
2023/10/05 15:13:56;;;;;;;3.35;1.20;;;;;;;;;;4952440;28;20030;-59
2023/10/05 15:16:22;;;;;;;4.22;1.48;;;;;;;;;;4956220;28;20550;-62
2023/10/05 15:18:49;;;;;;;3.08;1.08;;;;;;;;;;4967364;28;20046;-59
2023/10/05 15:21:18;;;;;;;3.88;1.00;;;;;;;;;;4951956;28;20082;-62
2023/10/05 15:23:45;;;;;;;4.07;1.02;;;;;;;;;;4952055;28;20070;-61
2023/10/05 15:26:12;;;;;;;7.00;1.15;;;;;;;;;;4951559;28;20042;-60
2023/10/05 15:28:40;;;;;;;4.35;1.00;;;;;;;;;;4949956;28;20516;-59
2023/10/05 15:31:07;;;;;;;4.32;1.20;;;;;;;;;;4952891;28;20479;-60
2023/10/05 15:33:35;;;;;;;5.35;0.98;;;;;;;;;;4952431;28;20034;-59
2023/10/05 15:36:02;;;;;;;3.40;1.13;;;;;;;;;;4952835;28;20100;-63
2023/10/05 15:38:29;;;;;;;3.42;1.17;;;;;;;;;;4951002;28;20046;-60
2023/10/05 15:40:56;;;;;;;5.82;1.00;;;;;;;;;;4956019;28;20708;-59
2023/10/05 15:43:23;;;;;;;4.03;1.10;;;;;;;;;;4955013;28;20184;-59